Soaring Guidance
Issued by NWS Reno, NV

Home | Current Version | Previous Version | Text Only | Print | Product List | Glossary On
Versions: 1 2 3 4 5 6 7
000
UXUS97 KREV 101441
SRGREV

SOARING FORECAST
NATIONAL WEATHER SERVICE - RENO NV
700 AM PST SUN DEC 10 2017

THIS SOARING FORECAST IS FOR THE EASTERN SIERRA AND WESTERN NEVADA
WITH SPECIFIC INDICES FOR THE GREATER RENO AREA.

THIS FORECAST IS PREPARED DAILY BY 700 AM AND IS NOT UPDATED.

FOR CURRENT FLIGHT CONDITIONS...FORECASTS...AND ADVISORIES...ACCESS
YOUR LOCAL BRIEFING OUTLET OR FLIGHT SERVICE STATION.

*******************************************************************
FORECASTED LOCAL INDICES FOR RENO:        TODAY     YESTERDAY
FORECASTED MAX TEMP AT RENO (DEG F).....     48          47
FORECASTED TRIGGER TEMPERATURE (DEG F)..     65          61
   EXCEEDED YESTERDAY BY
FORECASTED MAXIMUM ALTITUDE (FT MSL)....   6200        6400
FORECASTED SOARING INDEX (FPM)..........    276         192
FORECASTED K-INDEX.........VALID 18Z....    -41         -32
FORECASTED K-INDEX.........VALID 00Z....    -41         -36
FORECASTED LIFTED INDEX....VALID 18Z....     14          13
FORECASTED LIFTED INDEX....VALID 00Z....     14          13

AFTERNOON WINDS ALOFT FORECAST
MSL (FT) WIND/TEMP
9000  1420/+07
10000 1319/+05
12000 1317/+03
14000 1116/-03
16000 1114/-09
18000 11 9/-15
24000 9900/-28
30000 3408/-44
34000 9900/-53
39000 3406/-61

SLIDE MOUNTAIN DATA:
     DATE       TIME     TEMP  DEWPT   RH         WIND (MPH)
                        (F)   (F)           | DIR  SPEED GUST


RUN: 2017-12-10  06:20 AM

SIERRA CREST 8700 FT DATA:
   DATE     TIME  TEMP  RH         WIND
                            DIR   SPEED   GUST
2017-12-10 0545   36   15   071     20     23
2017-12-10 0530   37   14   062     18     25
2017-12-10 0515   36   17   044     20     27
2017-12-10 0500   36   16   043     19     27

RENO TAF FORECAST:
KRNO 101132Z 1012/1112 VRB03KT P6SM FEW250

CARSON CITY TAF FORECAST:
KCXP 101132Z 1012/1112 VRB03KT P6SM FEW250
     FM102000 08010KT P6SM FEW250
     FM110100 VRB03KT P6SM FEW250

OUTLOOK FOR THE RENO-CARSON CITY-MINDEN AREA:
.MONDAY...SUNNY, HAZE. HIGHS 48 TO 53. LIGHT WINDS.

SUNRISE AND SUNSET
DECEMBER 10 2017......SUNRISE   709 AM PST   SUNSET   435 PM PST
DECEMBER 11 2017......SUNRISE   710 AM PST   SUNSET   435 PM PST



USA.gov is the U.S. government's official web portal to all federal, state and local government web resources and services.